sensor_id;sensor_type;location;lat;lon;timestamp;P1;durP1;ratioP1;P2;durP2;ratioP2
3052;SDS011;1536;51.098;6.414;2023-03-24T00:01:49;2.33;;;1.90;;
3052;SDS011;1536;51.098;6.414;2023-03-24T00:04:16;3.40;;;2.03;;
3052;SDS011;1536;51.098;6.414;2023-03-24T00:06:44;2.00;;;1.70;;
3052;SDS011;1536;51.098;6.414;2023-03-24T00:09:15;1.90;;;1.80;;
3052;SDS011;1536;51.098;6.414;2023-03-24T00:11:42;1.73;;;1.50;;
3052;SDS011;1536;51.098;6.414;2023-03-24T00:14:09;2.53;;;1.90;;
3052;SDS011;1536;51.098;6.414;2023-03-24T00:16:37;2.43;;;1.80;;
3052;SDS011;1536;51.098;6.414;2023-03-24T00:19:06;2.10;;;1.90;;
3052;SDS011;1536;51.098;6.414;2023-03-24T00:21:34;2.03;;;1.50;;
3052;SDS011;1536;51.098;6.414;2023-03-24T00:24:02;4.57;;;2.33;;
3052;SDS011;1536;51.098;6.414;2023-03-24T00:26:33;1.97;;;1.77;;
3052;SDS011;1536;51.098;6.414;2023-03-24T00:29:02;2.80;;;2.13;;
3052;SDS011;1536;51.098;6.414;2023-03-24T00:31:29;3.30;;;2.10;;
3052;SDS011;1536;51.098;6.414;2023-03-24T00:33:56;4.13;;;2.20;;
3052;SDS011;1536;51.098;6.414;2023-03-24T00:36:26;2.73;;;2.33;;
3052;SDS011;1536;51.098;6.414;2023-03-24T00:38:53;2.40;;;1.63;;
3052;SDS011;1536;51.098;6.414;2023-03-24T00:41:21;2.20;;;2.00;;
3052;SDS011;1536;51.098;6.414;2023-03-24T00:43:53;2.40;;;2.20;;
3052;SDS011;1536;51.098;6.414;2023-03-24T00:46:21;1.73;;;1.50;;
3052;SDS011;1536;51.098;6.414;2023-03-24T00:48:54;3.67;;;2.00;;
3052;SDS011;1536;51.098;6.414;2023-03-24T00:51:26;5.30;;;1.90;;
3052;SDS011;1536;51.098;6.414;2023-03-24T00:53:54;2.07;;;1.90;;
3052;SDS011;1536;51.098;6.414;2023-03-24T00:56:22;3.70;;;2.10;;
3052;SDS011;1536;51.098;6.414;2023-03-24T00:58:53;3.10;;;2.80;;
3052;SDS011;1536;51.098;6.414;2023-03-24T01:01:21;3.13;;;1.93;;
3052;SDS011;1536;51.098;6.414;2023-03-24T01:03:49;3.50;;;2.10;;
3052;SDS011;1536;51.098;6.414;2023-03-24T01:06:16;2.40;;;2.20;;
3052;SDS011;1536;51.098;6.414;2023-03-24T01:08:46;2.57;;;2.37;;
3052;SDS011;1536;51.098;6.414;2023-03-24T01:11:14;3.73;;;2.43;;
3052;SDS011;1536;51.098;6.414;2023-03-24T01:13:42;3.13;;;2.13;;
3052;SDS011;1536;51.098;6.414;2023-03-24T01:16:11;2.97;;;2.37;;
3052;SDS011;1536;51.098;6.414;2023-03-24T01:18:38;2.80;;;2.50;;
3052;SDS011;1536;51.098;6.414;2023-03-24T01:21:06;4.37;;;2.30;;
3052;SDS011;1536;51.098;6.414;2023-03-24T01:23:33;2.97;;;2.33;;
3052;SDS011;1536;51.098;6.414;2023-03-24T01:26:03;3.00;;;2.47;;
3052;SDS011;1536;51.098;6.414;2023-03-24T01:28:30;3.80;;;2.37;;
3052;SDS011;1536;51.098;6.414;2023-03-24T01:30:57;3.30;;;2.30;;
3052;SDS011;1536;51.098;6.414;2023-03-24T01:33:25;2.47;;;2.27;;
3052;SDS011;1536;51.098;6.414;2023-03-24T01:35:52;4.30;;;2.40;;
3052;SDS011;1536;51.098;6.414;2023-03-24T01:38:19;2.87;;;2.40;;
3052;SDS011;1536;51.098;6.414;2023-03-24T01:40:46;5.43;;;2.47;;
3052;SDS011;1536;51.098;6.414;2023-03-24T01:43:16;3.60;;;1.97;;
3052;SDS011;1536;51.098;6.414;2023-03-24T01:45:53;2.60;;;2.30;;
3052;SDS011;1536;51.098;6.414;2023-03-24T01:48:26;2.93;;;2.63;;
3052;SDS011;1536;51.098;6.414;2023-03-24T01:50:58;3.37;;;2.77;;
3052;SDS011;1536;51.098;6.414;2023-03-24T01:53:27;3.30;;;2.67;;
3052;SDS011;1536;51.098;6.414;2023-03-24T01:55:56;3.43;;;2.40;;
3052;SDS011;1536;51.098;6.414;2023-03-24T01:58:24;3.13;;;2.83;;
3052;SDS011;1536;51.098;6.414;2023-03-24T02:00:53;3.20;;;2.70;;
3052;SDS011;1536;51.098;6.414;2023-03-24T02:03:22;2.97;;;2.70;;
3052;SDS011;1536;51.098;6.414;2023-03-24T02:05:51;2.40;;;2.20;;
3052;SDS011;1536;51.098;6.414;2023-03-24T02:08:22;3.87;;;2.63;;
3052;SDS011;1536;51.098;6.414;2023-03-24T02:10:53;3.83;;;1.97;;
3052;SDS011;1536;51.098;6.414;2023-03-24T02:13:21;2.80;;;2.60;;
3052;SDS011;1536;51.098;6.414;2023-03-24T02:15:50;2.97;;;2.73;;
3052;SDS011;1536;51.098;6.414;2023-03-24T02:18:29;3.20;;;2.90;;
3052;SDS011;1536;51.098;6.414;2023-03-24T02:27:31;2.37;;;2.17;;
3052;SDS011;1536;51.098;6.414;2023-03-24T02:30:21;3.43;;;2.40;;
3052;SDS011;1536;51.098;6.414;2023-03-24T02:42:18;2.60;;;2.17;;
3052;SDS011;1536;51.098;6.414;2023-03-24T02:44:54;2.70;;;2.50;;
3052;SDS011;1536;51.098;6.414;2023-03-24T02:47:33;2.33;;;2.13;;
3052;SDS011;1536;51.098;6.414;2023-03-24T02:50:07;2.97;;;2.70;;
3052;SDS011;1536;51.098;6.414;2023-03-24T02:52:42;2.83;;;2.20;;
3052;SDS011;1536;51.098;6.414;2023-03-24T02:55:14;2.73;;;2.50;;
3052;SDS011;1536;51.098;6.414;2023-03-24T02:57:46;2.20;;;2.00;;
3052;SDS011;1536;51.098;6.414;2023-03-24T03:00:19;2.43;;;1.90;;
3052;SDS011;1536;51.098;6.414;2023-03-24T03:02:52;2.43;;;2.17;;
3052;SDS011;1536;51.098;6.414;2023-03-24T03:05:24;2.60;;;2.40;;
3052;SDS011;1536;51.098;6.414;2023-03-24T03:07:55;2.33;;;2.13;;
3052;SDS011;1536;51.098;6.414;2023-03-24T03:10:28;2.83;;;2.63;;
3052;SDS011;1536;51.098;6.414;2023-03-24T03:12:59;3.13;;;2.20;;
3052;SDS011;1536;51.098;6.414;2023-03-24T03:15:30;4.33;;;2.70;;
3052;SDS011;1536;51.098;6.414;2023-03-24T03:18:03;2.60;;;2.27;;
3052;SDS011;1536;51.098;6.414;2023-03-24T03:20:34;3.57;;;2.57;;
3052;SDS011;1536;51.098;6.414;2023-03-24T03:23:07;2.93;;;2.70;;
3052;SDS011;1536;51.098;6.414;2023-03-24T03:25:39;2.97;;;2.60;;
3052;SDS011;1536;51.098;6.414;2023-03-24T03:28:10;2.40;;;2.20;;
3052;SDS011;1536;51.098;6.414;2023-03-24T03:30:42;3.57;;;2.20;;
3052;SDS011;1536;51.098;6.414;2023-03-24T03:33:13;3.47;;;2.90;;
3052;SDS011;1536;51.098;6.414;2023-03-24T03:35:50;3.03;;;2.53;;
3052;SDS011;1536;51.098;6.414;2023-03-24T03:38:20;3.53;;;2.70;;
3052;SDS011;1536;51.098;6.414;2023-03-24T03:40:52;5.63;;;3.03;;
3052;SDS011;1536;51.098;6.414;2023-03-24T03:43:20;2.83;;;2.30;;
3052;SDS011;1536;51.098;6.414;2023-03-24T03:45:48;3.40;;;2.20;;
3052;SDS011;1536;51.098;6.414;2023-03-24T03:48:15;4.27;;;2.43;;
3052;SDS011;1536;51.098;6.414;2023-03-24T03:50:43;3.20;;;2.90;;
3052;SDS011;1536;51.098;6.414;2023-03-24T03:53:10;3.10;;;2.80;;
3052;SDS011;1536;51.098;6.414;2023-03-24T03:55:40;3.50;;;2.83;;
3052;SDS011;1536;51.098;6.414;2023-03-24T03:58:08;7.30;;;3.27;;
3052;SDS011;1536;51.098;6.414;2023-03-24T04:00:35;2.97;;;2.70;;
3052;SDS011;1536;51.098;6.414;2023-03-24T04:03:07;5.93;;;2.90;;
3052;SDS011;1536;51.098;6.414;2023-03-24T04:05:50;6.80;;;3.13;;
3052;SDS011;1536;51.098;6.414;2023-03-24T04:08:25;3.90;;;3.00;;
3052;SDS011;1536;51.098;6.414;2023-03-24T04:11:00;3.10;;;2.63;;
3052;SDS011;1536;51.098;6.414;2023-03-24T04:13:49;3.43;;;2.70;;
3052;SDS011;1536;51.098;6.414;2023-03-24T04:16:26;4.13;;;2.10;;
3052;SDS011;1536;51.098;6.414;2023-03-24T04:19:08;2.90;;;2.13;;
3052;SDS011;1536;51.098;6.414;2023-03-24T04:21:45;3.30;;;2.80;;
3052;SDS011;1536;51.098;6.414;2023-03-24T04:24:21;2.27;;;1.90;;
3052;SDS011;1536;51.098;6.414;2023-03-24T04:26:57;2.53;;;2.23;;
3052;SDS011;1536;51.098;6.414;2023-03-24T04:29:35;3.37;;;2.30;;
3052;SDS011;1536;51.098;6.414;2023-03-24T04:32:11;2.77;;;2.47;;
3052;SDS011;1536;51.098;6.414;2023-03-24T04:34:45;3.57;;;2.33;;
3052;SDS011;1536;51.098;6.414;2023-03-24T04:37:18;2.77;;;2.50;;
3052;SDS011;1536;51.098;6.414;2023-03-24T04:39:47;2.60;;;2.27;;
3052;SDS011;1536;51.098;6.414;2023-03-24T04:42:18;3.43;;;2.53;;
3052;SDS011;1536;51.098;6.414;2023-03-24T04:44:49;3.30;;;2.30;;
3052;SDS011;1536;51.098;6.414;2023-03-24T04:47:17;2.60;;;2.40;;
3052;SDS011;1536;51.098;6.414;2023-03-24T04:49:47;3.67;;;2.60;;
3052;SDS011;1536;51.098;6.414;2023-03-24T04:52:14;4.97;;;2.73;;
3052;SDS011;1536;51.098;6.414;2023-03-24T04:54:41;3.90;;;2.27;;
3052;SDS011;1536;51.098;6.414;2023-03-24T04:57:08;4.30;;;2.50;;
3052;SDS011;1536;51.098;6.414;2023-03-24T04:59:34;2.70;;;2.00;;
3052;SDS011;1536;51.098;6.414;2023-03-24T05:02:02;3.60;;;2.40;;
3052;SDS011;1536;51.098;6.414;2023-03-24T05:04:31;3.60;;;2.23;;
3052;SDS011;1536;51.098;6.414;2023-03-24T05:07:00;5.07;;;2.00;;
3052;SDS011;1536;51.098;6.414;2023-03-24T05:09:27;1.93;;;1.53;;
3052;SDS011;1536;51.098;6.414;2023-03-24T05:11:55;2.70;;;1.27;;
3052;SDS011;1536;51.098;6.414;2023-03-24T05:14:22;2.23;;;1.30;;
3052;SDS011;1536;51.098;6.414;2023-03-24T05:16:49;2.87;;;1.37;;
3052;SDS011;1536;51.098;6.414;2023-03-24T05:19:17;4.77;;;1.47;;
3052;SDS011;1536;51.098;6.414;2023-03-24T05:21:44;2.23;;;1.40;;
3052;SDS011;1536;51.098;6.414;2023-03-24T05:24:11;3.40;;;1.70;;
3052;SDS011;1536;51.098;6.414;2023-03-24T05:26:38;5.23;;;1.93;;
3052;SDS011;1536;51.098;6.414;2023-03-24T05:29:05;3.13;;;1.40;;
3052;SDS011;1536;51.098;6.414;2023-03-24T05:31:31;5.77;;;1.60;;
3052;SDS011;1536;51.098;6.414;2023-03-24T05:33:58;3.97;;;1.53;;
3052;SDS011;1536;51.098;6.414;2023-03-24T05:36:26;2.93;;;1.40;;
3052;SDS011;1536;51.098;6.414;2023-03-24T05:38:53;9.57;;;1.97;;
3052;SDS011;1536;51.098;6.414;2023-03-24T05:41:20;4.40;;;1.27;;
3052;SDS011;1536;51.098;6.414;2023-03-24T05:43:46;3.83;;;1.73;;
3052;SDS011;1536;51.098;6.414;2023-03-24T05:46:13;2.67;;;1.30;;
3052;SDS011;1536;51.098;6.414;2023-03-24T05:48:40;4.83;;;1.60;;
3052;SDS011;1536;51.098;6.414;2023-03-24T05:51:07;5.33;;;3.90;;
3052;SDS011;1536;51.098;6.414;2023-03-24T05:53:35;3.77;;;1.80;;
3052;SDS011;1536;51.098;6.414;2023-03-24T05:56:02;5.43;;;1.40;;
3052;SDS011;1536;51.098;6.414;2023-03-24T05:58:29;4.72;;;1.60;;
3052;SDS011;1536;51.098;6.414;2023-03-24T06:00:58;5.40;;;1.23;;
3052;SDS011;1536;51.098;6.414;2023-03-24T06:03:30;4.28;;;1.60;;
3052;SDS011;1536;51.098;6.414;2023-03-24T06:06:02;3.87;;;1.40;;
3052;SDS011;1536;51.098;6.414;2023-03-24T06:08:30;3.10;;;1.80;;
3052;SDS011;1536;51.098;6.414;2023-03-24T06:10:59;3.87;;;1.40;;
3052;SDS011;1536;51.098;6.414;2023-03-24T06:13:26;4.03;;;1.43;;
3052;SDS011;1536;51.098;6.414;2023-03-24T06:15:53;8.57;;;1.87;;
3052;SDS011;1536;51.098;6.414;2023-03-24T06:18:22;8.00;;;2.27;;
3052;SDS011;1536;51.098;6.414;2023-03-24T06:20:50;6.07;;;2.10;;
3052;SDS011;1536;51.098;6.414;2023-03-24T06:23:20;1.93;;;1.40;;
3052;SDS011;1536;51.098;6.414;2023-03-24T06:25:49;3.63;;;1.67;;
3052;SDS011;1536;51.098;6.414;2023-03-24T06:28:19;3.10;;;1.70;;
3052;SDS011;1536;51.098;6.414;2023-03-24T06:30:50;7.10;;;1.93;;
3052;SDS011;1536;51.098;6.414;2023-03-24T06:33:16;8.17;;;2.73;;
3052;SDS011;1536;51.098;6.414;2023-03-24T06:35:46;6.60;;;2.50;;
3052;SDS011;1536;51.098;6.414;2023-03-24T06:38:12;4.93;;;2.00;;
3052;SDS011;1536;51.098;6.414;2023-03-24T06:40:39;6.00;;;1.83;;
3052;SDS011;1536;51.098;6.414;2023-03-24T06:43:06;3.73;;;1.87;;
3052;SDS011;1536;51.098;6.414;2023-03-24T06:45:34;5.43;;;1.53;;
3052;SDS011;1536;51.098;6.414;2023-03-24T06:48:03;7.13;;;2.00;;
3052;SDS011;1536;51.098;6.414;2023-03-24T06:50:30;5.97;;;2.23;;
3052;SDS011;1536;51.098;6.414;2023-03-24T06:52:59;6.97;;;2.42;;
3052;SDS011;1536;51.098;6.414;2023-03-24T06:55:26;12.20;;;2.37;;
3052;SDS011;1536;51.098;6.414;2023-03-24T06:57:53;4.90;;;2.23;;
3052;SDS011;1536;51.098;6.414;2023-03-24T07:00:20;7.63;;;3.70;;
3052;SDS011;1536;51.098;6.414;2023-03-24T07:02:48;6.90;;;3.27;;
3052;SDS011;1536;51.098;6.414;2023-03-24T07:05:16;8.33;;;3.00;;
3052;SDS011;1536;51.098;6.414;2023-03-24T07:07:43;8.17;;;3.13;;
3052;SDS011;1536;51.098;6.414;2023-03-24T07:10:10;12.27;;;4.17;;
3052;SDS011;1536;51.098;6.414;2023-03-24T07:12:38;6.38;;;2.80;;
3052;SDS011;1536;51.098;6.414;2023-03-24T07:15:05;9.85;;;3.55;;
3052;SDS011;1536;51.098;6.414;2023-03-24T07:17:33;9.30;;;3.88;;
3052;SDS011;1536;51.098;6.414;2023-03-24T07:20:01;9.63;;;3.63;;
3052;SDS011;1536;51.098;6.414;2023-03-24T07:22:32;7.10;;;4.10;;
3052;SDS011;1536;51.098;6.414;2023-03-24T07:24:59;10.30;;;3.90;;
3052;SDS011;1536;51.098;6.414;2023-03-24T07:27:28;10.17;;;4.60;;
3052;SDS011;1536;51.098;6.414;2023-03-24T07:29:56;7.30;;;3.30;;
3052;SDS011;1536;51.098;6.414;2023-03-24T07:32:23;7.10;;;3.53;;
3052;SDS011;1536;51.098;6.414;2023-03-24T07:34:50;12.47;;;3.87;;
3052;SDS011;1536;51.098;6.414;2023-03-24T07:37:18;5.90;;;2.90;;
3052;SDS011;1536;51.098;6.414;2023-03-24T07:39:45;13.97;;;3.87;;
3052;SDS011;1536;51.098;6.414;2023-03-24T07:42:12;5.40;;;3.10;;
3052;SDS011;1536;51.098;6.414;2023-03-24T07:44:39;13.63;;;3.90;;
3052;SDS011;1536;51.098;6.414;2023-03-24T07:47:06;8.53;;;3.00;;
3052;SDS011;1536;51.098;6.414;2023-03-24T07:49:32;11.00;;;3.63;;
3052;SDS011;1536;51.098;6.414;2023-03-24T07:51:59;5.03;;;3.13;;
3052;SDS011;1536;51.098;6.414;2023-03-24T07:54:31;5.30;;;2.80;;
3052;SDS011;1536;51.098;6.414;2023-03-24T07:56:58;6.50;;;2.50;;
3052;SDS011;1536;51.098;6.414;2023-03-24T07:59:25;9.57;;;2.63;;
3052;SDS011;1536;51.098;6.414;2023-03-24T08:01:52;6.93;;;2.60;;
3052;SDS011;1536;51.098;6.414;2023-03-24T08:04:33;11.10;;;3.07;;
3052;SDS011;1536;51.098;6.414;2023-03-24T08:06:59;10.00;;;3.37;;
3052;SDS011;1536;51.098;6.414;2023-03-24T08:09:27;7.70;;;2.80;;
3052;SDS011;1536;51.098;6.414;2023-03-24T08:11:55;11.83;;;2.90;;
3052;SDS011;1536;51.098;6.414;2023-03-24T08:14:21;14.10;;;2.80;;
3052;SDS011;1536;51.098;6.414;2023-03-24T08:16:48;14.00;;;4.00;;
3052;SDS011;1536;51.098;6.414;2023-03-24T08:19:15;18.80;;;3.67;;
3052;SDS011;1536;51.098;6.414;2023-03-24T08:21:41;9.03;;;3.30;;
3052;SDS011;1536;51.098;6.414;2023-03-24T08:24:08;6.50;;;2.90;;
3052;SDS011;1536;51.098;6.414;2023-03-24T08:26:35;8.40;;;2.60;;
3052;SDS011;1536;51.098;6.414;2023-03-24T08:29:03;9.77;;;3.80;;
3052;SDS011;1536;51.098;6.414;2023-03-24T08:31:30;10.40;;;2.90;;
3052;SDS011;1536;51.098;6.414;2023-03-24T08:33:58;13.03;;;3.17;;
3052;SDS011;1536;51.098;6.414;2023-03-24T08:36:24;14.10;;;3.30;;
3052;SDS011;1536;51.098;6.414;2023-03-24T08:38:52;7.70;;;2.90;;
3052;SDS011;1536;51.098;6.414;2023-03-24T08:41:20;10.77;;;3.37;;
3052;SDS011;1536;51.098;6.414;2023-03-24T08:43:58;6.47;;;2.90;;
3052;SDS011;1536;51.098;6.414;2023-03-24T08:46:28;12.90;;;3.43;;
3052;SDS011;1536;51.098;6.414;2023-03-24T08:48:55;9.50;;;4.37;;
3052;SDS011;1536;51.098;6.414;2023-03-24T08:51:22;13.10;;;4.10;;
3052;SDS011;1536;51.098;6.414;2023-03-24T08:53:49;13.27;;;5.07;;
3052;SDS011;1536;51.098;6.414;2023-03-24T08:56:18;12.30;;;4.17;;
3052;SDS011;1536;51.098;6.414;2023-03-24T08:58:45;13.57;;;4.63;;
3052;SDS011;1536;51.098;6.414;2023-03-24T09:01:15;5.07;;;3.30;;
3052;SDS011;1536;51.098;6.414;2023-03-24T09:03:43;8.53;;;3.83;;
3052;SDS011;1536;51.098;6.414;2023-03-24T09:06:10;11.17;;;4.27;;
3052;SDS011;1536;51.098;6.414;2023-03-24T09:08:37;13.13;;;4.30;;
3052;SDS011;1536;51.098;6.414;2023-03-24T09:11:05;11.57;;;4.53;;
3052;SDS011;1536;51.098;6.414;2023-03-24T09:13:32;11.63;;;4.77;;
3052;SDS011;1536;51.098;6.414;2023-03-24T09:15:59;7.33;;;4.40;;
3052;SDS011;1536;51.098;6.414;2023-03-24T09:18:27;10.13;;;4.50;;
3052;SDS011;1536;51.098;6.414;2023-03-24T09:20:55;13.17;;;4.10;;
3052;SDS011;1536;51.098;6.414;2023-03-24T09:23:22;16.83;;;4.60;;
3052;SDS011;1536;51.098;6.414;2023-03-24T09:25:49;12.73;;;4.00;;
3052;SDS011;1536;51.098;6.414;2023-03-24T09:28:16;12.63;;;5.00;;
3052;SDS011;1536;51.098;6.414;2023-03-24T09:30:43;9.87;;;3.70;;
3052;SDS011;1536;51.098;6.414;2023-03-24T09:33:10;10.77;;;3.40;;
3052;SDS011;1536;51.098;6.414;2023-03-24T09:35:37;11.63;;;4.20;;
3052;SDS011;1536;51.098;6.414;2023-03-24T09:38:05;8.37;;;2.97;;
3052;SDS011;1536;51.098;6.414;2023-03-24T09:40:35;12.23;;;3.90;;
3052;SDS011;1536;51.098;6.414;2023-03-24T09:43:05;14.27;;;3.67;;
3052;SDS011;1536;51.098;6.414;2023-03-24T09:45:38;8.80;;;3.50;;
3052;SDS011;1536;51.098;6.414;2023-03-24T09:48:15;9.87;;;3.90;;
3052;SDS011;1536;51.098;6.414;2023-03-24T09:50:46;13.07;;;3.83;;
3052;SDS011;1536;51.098;6.414;2023-03-24T09:53:20;11.93;;;3.60;;
3052;SDS011;1536;51.098;6.414;2023-03-24T09:55:53;11.17;;;3.30;;
3052;SDS011;1536;51.098;6.414;2023-03-24T09:58:20;14.50;;;3.30;;
3052;SDS011;1536;51.098;6.414;2023-03-24T10:00:52;13.40;;;3.70;;
3052;SDS011;1536;51.098;6.414;2023-03-24T10:03:19;6.57;;;3.27;;
3052;SDS011;1536;51.098;6.414;2023-03-24T10:05:49;9.20;;;2.80;;
3052;SDS011;1536;51.098;6.414;2023-03-24T10:08:23;9.30;;;2.90;;
3052;SDS011;1536;51.098;6.414;2023-03-24T10:10:56;11.07;;;3.20;;
3052;SDS011;1536;51.098;6.414;2023-03-24T10:13:28;7.37;;;2.30;;
3052;SDS011;1536;51.098;6.414;2023-03-24T10:16:06;10.37;;;2.70;;
3052;SDS011;1536;51.098;6.414;2023-03-24T10:18:39;8.43;;;3.20;;
3052;SDS011;1536;51.098;6.414;2023-03-24T10:21:12;5.97;;;2.97;;
3052;SDS011;1536;51.098;6.414;2023-03-24T10:23:46;5.30;;;3.03;;
3052;SDS011;1536;51.098;6.414;2023-03-24T10:26:22;5.67;;;3.43;;
3052;SDS011;1536;51.098;6.414;2023-03-24T10:29:04;5.40;;;2.50;;
3052;SDS011;1536;51.098;6.414;2023-03-24T10:31:43;7.40;;;4.50;;
3052;SDS011;1536;51.098;6.414;2023-03-24T10:34:13;8.23;;;3.10;;
3052;SDS011;1536;51.098;6.414;2023-03-24T10:36:41;9.53;;;2.97;;
3052;SDS011;1536;51.098;6.414;2023-03-24T10:39:11;7.07;;;3.13;;
3052;SDS011;1536;51.098;6.414;2023-03-24T10:41:40;6.70;;;2.33;;
3052;SDS011;1536;51.098;6.414;2023-03-24T10:44:09;6.00;;;2.70;;
3052;SDS011;1536;51.098;6.414;2023-03-24T10:46:39;6.90;;;2.97;;
3052;SDS011;1536;51.098;6.414;2023-03-24T10:49:13;8.63;;;2.17;;
3052;SDS011;1536;51.098;6.414;2023-03-24T10:51:43;22.03;;;2.90;;
3052;SDS011;1536;51.098;6.414;2023-03-24T10:54:16;7.43;;;2.40;;
3052;SDS011;1536;51.098;6.414;2023-03-24T10:56:45;7.70;;;2.70;;
3052;SDS011;1536;51.098;6.414;2023-03-24T10:59:24;11.53;;;2.80;;
3052;SDS011;1536;51.098;6.414;2023-03-24T11:02:00;9.90;;;3.10;;
3052;SDS011;1536;51.098;6.414;2023-03-24T11:04:36;6.33;;;2.37;;
3052;SDS011;1536;51.098;6.414;2023-03-24T11:07:06;7.80;;;3.17;;
3052;SDS011;1536;51.098;6.414;2023-03-24T11:09:43;6.70;;;2.80;;
3052;SDS011;1536;51.098;6.414;2023-03-24T11:12:19;4.90;;;2.53;;
3052;SDS011;1536;51.098;6.414;2023-03-24T11:14:47;7.63;;;2.43;;
3052;SDS011;1536;51.098;6.414;2023-03-24T11:17:14;10.10;;;2.80;;
3052;SDS011;1536;51.098;6.414;2023-03-24T11:19:49;8.23;;;2.93;;
3052;SDS011;1536;51.098;6.414;2023-03-24T11:22:17;10.90;;;3.93;;
3052;SDS011;1536;51.098;6.414;2023-03-24T11:24:45;6.10;;;2.70;;
3052;SDS011;1536;51.098;6.414;2023-03-24T11:27:15;7.90;;;3.43;;
3052;SDS011;1536;51.098;6.414;2023-03-24T11:29:43;7.80;;;3.00;;
3052;SDS011;1536;51.098;6.414;2023-03-24T11:32:16;5.73;;;3.93;;
3052;SDS011;1536;51.098;6.414;2023-03-24T11:34:47;6.47;;;2.40;;
3052;SDS011;1536;51.098;6.414;2023-03-24T11:37:20;7.60;;;2.63;;
3052;SDS011;1536;51.098;6.414;2023-03-24T11:42:48;10.40;;;3.17;;
3052;SDS011;1536;51.098;6.414;2023-03-24T11:45:19;5.43;;;2.30;;
3052;SDS011;1536;51.098;6.414;2023-03-24T11:47:55;8.23;;;2.50;;
3052;SDS011;1536;51.098;6.414;2023-03-24T11:50:24;5.10;;;2.63;;
3052;SDS011;1536;51.098;6.414;2023-03-24T11:52:55;8.87;;;2.97;;
3052;SDS011;1536;51.098;6.414;2023-03-24T11:55:31;8.30;;;2.80;;
3052;SDS011;1536;51.098;6.414;2023-03-24T11:58:03;5.63;;;2.87;;
3052;SDS011;1536;51.098;6.414;2023-03-24T12:00:41;9.63;;;3.47;;
3052;SDS011;1536;51.098;6.414;2023-03-24T12:06:16;8.90;;;3.27;;
3052;SDS011;1536;51.098;6.414;2023-03-24T12:08:55;10.63;;;3.07;;
3052;SDS011;1536;51.098;6.414;2023-03-24T12:11:32;8.73;;;3.00;;
3052;SDS011;1536;51.098;6.414;2023-03-24T12:14:16;11.17;;;3.23;;
3052;SDS011;1536;51.098;6.414;2023-03-24T12:16:54;8.17;;;2.77;;
3052;SDS011;1536;51.098;6.414;2023-03-24T12:19:34;10.97;;;4.10;;
3052;SDS011;1536;51.098;6.414;2023-03-24T12:22:21;6.63;;;3.40;;
3052;SDS011;1536;51.098;6.414;2023-03-24T12:25:06;8.60;;;3.37;;
3052;SDS011;1536;51.098;6.414;2023-03-24T12:27:47;5.10;;;3.10;;
3052;SDS011;1536;51.098;6.414;2023-03-24T12:30:25;13.23;;;3.70;;
3052;SDS011;1536;51.098;6.414;2023-03-24T12:33:07;7.03;;;2.77;;
3052;SDS011;1536;51.098;6.414;2023-03-24T12:35:54;4.53;;;2.47;;
3052;SDS011;1536;51.098;6.414;2023-03-24T12:38:40;9.43;;;3.43;;
3052;SDS011;1536;51.098;6.414;2023-03-24T12:44:26;9.60;;;2.57;;
3052;SDS011;1536;51.098;6.414;2023-03-24T12:47:09;7.10;;;2.80;;
3052;SDS011;1536;51.098;6.414;2023-03-24T12:49:51;7.80;;;2.90;;
3052;SDS011;1536;51.098;6.414;2023-03-24T12:52:42;7.37;;;2.80;;
3052;SDS011;1536;51.098;6.414;2023-03-24T12:55:23;10.00;;;3.83;;
3052;SDS011;1536;51.098;6.414;2023-03-24T12:57:57;10.93;;;2.80;;
3052;SDS011;1536;51.098;6.414;2023-03-24T13:00:27;6.60;;;2.30;;
3052;SDS011;1536;51.098;6.414;2023-03-24T13:03:00;9.53;;;3.20;;
3052;SDS011;1536;51.098;6.414;2023-03-24T13:05:31;4.07;;;1.97;;
3052;SDS011;1536;51.098;6.414;2023-03-24T13:08:01;5.10;;;2.67;;
3052;SDS011;1536;51.098;6.414;2023-03-24T13:10:32;7.43;;;2.33;;
3052;SDS011;1536;51.098;6.414;2023-03-24T13:13:05;6.30;;;2.30;;
3052;SDS011;1536;51.098;6.414;2023-03-24T13:15:38;8.30;;;2.57;;
3052;SDS011;1536;51.098;6.414;2023-03-24T13:18:16;7.13;;;2.83;;
3052;SDS011;1536;51.098;6.414;2023-03-24T13:20:50;7.73;;;2.50;;
3052;SDS011;1536;51.098;6.414;2023-03-24T13:23:27;6.83;;;2.37;;
3052;SDS011;1536;51.098;6.414;2023-03-24T13:26:05;3.33;;;2.30;;
3052;SDS011;1536;51.098;6.414;2023-03-24T13:28:43;4.20;;;2.27;;
3052;SDS011;1536;51.098;6.414;2023-03-24T13:31:18;9.10;;;2.27;;
3052;SDS011;1536;51.098;6.414;2023-03-24T13:33:48;5.83;;;2.30;;
3052;SDS011;1536;51.098;6.414;2023-03-24T13:36:23;2.73;;;2.23;;
3052;SDS011;1536;51.098;6.414;2023-03-24T13:39:00;7.27;;;2.67;;
3052;SDS011;1536;51.098;6.414;2023-03-24T13:41:31;3.30;;;2.00;;
3052;SDS011;1536;51.098;6.414;2023-03-24T13:44:02;3.10;;;2.07;;
3052;SDS011;1536;51.098;6.414;2023-03-24T13:46:34;5.30;;;2.27;;
3052;SDS011;1536;51.098;6.414;2023-03-24T13:49:03;3.60;;;1.93;;
3052;SDS011;1536;51.098;6.414;2023-03-24T13:51:34;4.80;;;2.00;;
3052;SDS011;1536;51.098;6.414;2023-03-24T13:54:04;6.30;;;2.90;;
3052;SDS011;1536;51.098;6.414;2023-03-24T13:56:37;4.63;;;2.40;;
3052;SDS011;1536;51.098;6.414;2023-03-24T13:59:08;6.47;;;2.07;;
3052;SDS011;1536;51.098;6.414;2023-03-24T14:04:49;6.80;;;2.20;;
3052;SDS011;1536;51.098;6.414;2023-03-24T14:07:28;4.47;;;1.90;;
3052;SDS011;1536;51.098;6.414;2023-03-24T14:09:58;3.57;;;2.10;;
3052;SDS011;1536;51.098;6.414;2023-03-24T14:12:25;8.30;;;2.40;;
3052;SDS011;1536;51.098;6.414;2023-03-24T14:17:45;3.93;;;1.93;;
3052;SDS011;1536;51.098;6.414;2023-03-24T14:20:28;2.63;;;1.90;;
3052;SDS011;1536;51.098;6.414;2023-03-24T14:22:58;5.87;;;2.20;;
3052;SDS011;1536;51.098;6.414;2023-03-24T14:25:27;9.10;;;2.43;;
3052;SDS011;1536;51.098;6.414;2023-03-24T14:28:05;4.30;;;1.63;;
3052;SDS011;1536;51.098;6.414;2023-03-24T14:30:53;3.77;;;2.10;;
3052;SDS011;1536;51.098;6.414;2023-03-24T14:33:27;3.77;;;2.10;;
3052;SDS011;1536;51.098;6.414;2023-03-24T14:35:59;5.23;;;2.00;;
3052;SDS011;1536;51.098;6.414;2023-03-24T14:38:32;6.63;;;2.07;;
3052;SDS011;1536;51.098;6.414;2023-03-24T14:41:05;5.07;;;1.77;;
3052;SDS011;1536;51.098;6.414;2023-03-24T14:43:53;3.60;;;1.50;;
3052;SDS011;1536;51.098;6.414;2023-03-24T14:46:40;4.33;;;2.13;;
3052;SDS011;1536;51.098;6.414;2023-03-24T14:49:16;2.63;;;1.87;;
3052;SDS011;1536;51.098;6.414;2023-03-24T14:51:51;4.87;;;2.40;;
3052;SDS011;1536;51.098;6.414;2023-03-24T14:54:25;5.93;;;2.13;;
3052;SDS011;1536;51.098;6.414;2023-03-24T14:57:00;3.00;;;2.17;;
3052;SDS011;1536;51.098;6.414;2023-03-24T14:59:30;7.07;;;2.27;;
3052;SDS011;1536;51.098;6.414;2023-03-24T15:02:02;4.70;;;2.23;;
3052;SDS011;1536;51.098;6.414;2023-03-24T15:04:38;4.77;;;2.03;;
3052;SDS011;1536;51.098;6.414;2023-03-24T15:07:09;4.73;;;2.20;;
3052;SDS011;1536;51.098;6.414;2023-03-24T15:09:38;2.13;;;1.77;;
3052;SDS011;1536;51.098;6.414;2023-03-24T15:12:15;4.60;;;2.30;;
3052;SDS011;1536;51.098;6.414;2023-03-24T15:14:41;4.30;;;2.00;;
3052;SDS011;1536;51.098;6.414;2023-03-24T15:17:15;4.00;;;2.07;;
3052;SDS011;1536;51.098;6.414;2023-03-24T15:19:45;5.30;;;2.20;;
3052;SDS011;1536;51.098;6.414;2023-03-24T15:22:18;6.57;;;2.27;;
3052;SDS011;1536;51.098;6.414;2023-03-24T15:24:46;3.37;;;2.13;;
3052;SDS011;1536;51.098;6.414;2023-03-24T15:27:16;5.47;;;2.10;;
3052;SDS011;1536;51.098;6.414;2023-03-24T15:29:48;6.20;;;2.57;;
3052;SDS011;1536;51.098;6.414;2023-03-24T15:32:21;5.03;;;1.80;;
3052;SDS011;1536;51.098;6.414;2023-03-24T15:34:51;2.40;;;1.30;;
3052;SDS011;1536;51.098;6.414;2023-03-24T15:37:20;2.60;;;1.30;;
3052;SDS011;1536;51.098;6.414;2023-03-24T15:39:49;1.93;;;1.40;;
3052;SDS011;1536;51.098;6.414;2023-03-24T15:42:19;2.07;;;1.03;;
3052;SDS011;1536;51.098;6.414;2023-03-24T15:44:48;6.00;;;1.63;;
3052;SDS011;1536;51.098;6.414;2023-03-24T15:47:18;3.97;;;1.30;;
3052;SDS011;1536;51.098;6.414;2023-03-24T15:49:48;3.10;;;1.37;;
3052;SDS011;1536;51.098;6.414;2023-03-24T15:52:26;8.10;;;1.77;;
3052;SDS011;1536;51.098;6.414;2023-03-24T15:54:58;1.40;;;1.30;;
3052;SDS011;1536;51.098;6.414;2023-03-24T15:57:26;4.77;;;1.30;;
3052;SDS011;1536;51.098;6.414;2023-03-24T16:00:04;1.50;;;1.30;;
3052;SDS011;1536;51.098;6.414;2023-03-24T16:02:41;5.30;;;1.67;;
3052;SDS011;1536;51.098;6.414;2023-03-24T16:05:12;2.20;;;1.40;;
3052;SDS011;1536;51.098;6.414;2023-03-24T16:07:51;1.73;;;1.37;;